sensor_id;sensor_type;location;lat;lon;timestamp;P1;durP1;ratioP1;P2;durP2;ratioP2
50225;SDS011;36113;50.742;6.432;2023-06-24T00:01:19;11.43;;;5.57;;
50225;SDS011;36113;50.742;6.432;2023-06-24T00:03:44;5.13;;;4.73;;
50225;SDS011;36113;50.742;6.432;2023-06-24T00:06:12;5.13;;;4.63;;
50225;SDS011;36113;50.742;6.432;2023-06-24T00:08:43;6.15;;;4.50;;
50225;SDS011;36113;50.742;6.432;2023-06-24T00:11:10;6.20;;;5.47;;
50225;SDS011;36113;50.742;6.432;2023-06-24T00:13:35;5.80;;;4.10;;
50225;SDS011;36113;50.742;6.432;2023-06-24T00:16:01;6.37;;;4.53;;
50225;SDS011;36113;50.742;6.432;2023-06-24T00:18:26;6.17;;;5.50;;
50225;SDS011;36113;50.742;6.432;2023-06-24T00:20:54;5.55;;;5.05;;
50225;SDS011;36113;50.742;6.432;2023-06-24T00:23:21;6.40;;;4.97;;
50225;SDS011;36113;50.742;6.432;2023-06-24T00:25:49;7.45;;;5.68;;
50225;SDS011;36113;50.742;6.432;2023-06-24T00:28:15;5.65;;;5.15;;
50225;SDS011;36113;50.742;6.432;2023-06-24T00:30:41;6.53;;;6.00;;
50225;SDS011;36113;50.742;6.432;2023-06-24T00:33:06;5.87;;;5.23;;
50225;SDS011;36113;50.742;6.432;2023-06-24T00:35:34;8.43;;;5.00;;
50225;SDS011;36113;50.742;6.432;2023-06-24T00:37:59;13.20;;;5.40;;
50225;SDS011;36113;50.742;6.432;2023-06-24T00:40:24;5.67;;;5.23;;
50225;SDS011;36113;50.742;6.432;2023-06-24T00:42:50;7.23;;;5.50;;
50225;SDS011;36113;50.742;6.432;2023-06-24T00:45:15;6.80;;;5.33;;
50225;SDS011;36113;50.742;6.432;2023-06-24T00:47:43;9.43;;;5.45;;
50225;SDS011;36113;50.742;6.432;2023-06-24T00:50:08;8.03;;;5.57;;
50225;SDS011;36113;50.742;6.432;2023-06-24T00:52:37;5.93;;;5.43;;
50225;SDS011;36113;50.742;6.432;2023-06-24T00:55:07;6.50;;;5.43;;
50225;SDS011;36113;50.742;6.432;2023-06-24T00:57:32;6.63;;;5.30;;
50225;SDS011;36113;50.742;6.432;2023-06-24T00:59:59;7.27;;;5.60;;
50225;SDS011;36113;50.742;6.432;2023-06-24T01:02:25;9.50;;;5.75;;
50225;SDS011;36113;50.742;6.432;2023-06-24T01:04:52;8.35;;;5.18;;
50225;SDS011;36113;50.742;6.432;2023-06-24T01:07:18;7.73;;;5.10;;
50225;SDS011;36113;50.742;6.432;2023-06-24T01:09:44;8.07;;;5.65;;
50225;SDS011;36113;50.742;6.432;2023-06-24T01:12:10;5.47;;;4.97;;
50225;SDS011;36113;50.742;6.432;2023-06-24T01:14:35;10.00;;;5.10;;
50225;SDS011;36113;50.742;6.432;2023-06-24T01:17:34;6.40;;;5.50;;
50225;SDS011;36113;50.742;6.432;2023-06-24T01:22:48;5.80;;;5.20;;
50225;SDS011;36113;50.742;6.432;2023-06-24T01:33:24;6.45;;;5.25;;
50225;SDS011;36113;50.742;6.432;2023-06-24T01:35:57;5.53;;;5.00;;
50225;SDS011;36113;50.742;6.432;2023-06-24T01:38:27;5.70;;;5.07;;
50225;SDS011;36113;50.742;6.432;2023-06-24T01:41:00;5.95;;;4.80;;
50225;SDS011;36113;50.742;6.432;2023-06-24T01:43:29;5.95;;;5.13;;
50225;SDS011;36113;50.742;6.432;2023-06-24T01:45:59;6.32;;;5.40;;
50225;SDS011;36113;50.742;6.432;2023-06-24T01:48:25;12.98;;;5.43;;
50225;SDS011;36113;50.742;6.432;2023-06-24T01:51:01;6.05;;;5.05;;
50225;SDS011;36113;50.742;6.432;2023-06-24T01:53:29;5.90;;;4.65;;
50225;SDS011;36113;50.742;6.432;2023-06-24T01:55:59;6.30;;;4.80;;
50225;SDS011;36113;50.742;6.432;2023-06-24T01:58:26;7.68;;;4.85;;
50225;SDS011;36113;50.742;6.432;2023-06-24T02:00:53;8.48;;;5.00;;
50225;SDS011;36113;50.742;6.432;2023-06-24T02:03:19;4.85;;;4.40;;
50225;SDS011;36113;50.742;6.432;2023-06-24T02:05:46;5.72;;;4.97;;
50225;SDS011;36113;50.742;6.432;2023-06-24T02:08:13;7.13;;;4.72;;
50225;SDS011;36113;50.742;6.432;2023-06-24T02:10:40;5.47;;;4.97;;
50225;SDS011;36113;50.742;6.432;2023-06-24T02:13:07;6.18;;;5.57;;
50225;SDS011;36113;50.742;6.432;2023-06-24T02:15:35;6.85;;;5.90;;
50225;SDS011;36113;50.742;6.432;2023-06-24T02:20:28;6.65;;;5.93;;
50225;SDS011;36113;50.742;6.432;2023-06-24T02:22:56;8.25;;;5.60;;
50225;SDS011;36113;50.742;6.432;2023-06-24T02:25:24;10.07;;;7.18;;
50225;SDS011;36113;50.742;6.432;2023-06-24T02:27:51;7.00;;;5.22;;
50225;SDS011;36113;50.742;6.432;2023-06-24T02:30:18;6.00;;;5.50;;
50225;SDS011;36113;50.742;6.432;2023-06-24T02:32:45;6.65;;;5.55;;
50225;SDS011;36113;50.742;6.432;2023-06-24T02:35:11;6.30;;;5.70;;
50225;SDS011;36113;50.742;6.432;2023-06-24T02:37:37;6.00;;;5.40;;
50225;SDS011;36113;50.742;6.432;2023-06-24T02:40:02;8.10;;;5.37;;
50225;SDS011;36113;50.742;6.432;2023-06-24T02:42:30;6.68;;;5.35;;
50225;SDS011;36113;50.742;6.432;2023-06-24T02:44:55;5.57;;;5.07;;
50225;SDS011;36113;50.742;6.432;2023-06-24T02:47:21;7.80;;;6.13;;
50225;SDS011;36113;50.742;6.432;2023-06-24T02:49:48;6.07;;;5.00;;
50225;SDS011;36113;50.742;6.432;2023-06-24T02:52:16;8.07;;;5.22;;
50225;SDS011;36113;50.742;6.432;2023-06-24T02:54:41;8.80;;;5.93;;
50225;SDS011;36113;50.742;6.432;2023-06-24T02:57:07;10.00;;;4.83;;
50225;SDS011;36113;50.742;6.432;2023-06-24T02:59:33;5.90;;;5.40;;
50225;SDS011;36113;50.742;6.432;2023-06-24T03:01:58;5.80;;;5.20;;
50225;SDS011;36113;50.742;6.432;2023-06-24T03:04:25;8.23;;;4.97;;
50225;SDS011;36113;50.742;6.432;2023-06-24T03:06:51;8.80;;;6.00;;
50225;SDS011;36113;50.742;6.432;2023-06-24T03:09:18;8.07;;;5.90;;
50225;SDS011;36113;50.742;6.432;2023-06-24T03:11:43;7.50;;;5.80;;
50225;SDS011;36113;50.742;6.432;2023-06-24T03:14:10;9.32;;;5.90;;
50225;SDS011;36113;50.742;6.432;2023-06-24T03:16:36;7.38;;;5.95;;
50225;SDS011;36113;50.742;6.432;2023-06-24T03:19:03;6.00;;;5.30;;
50225;SDS011;36113;50.742;6.432;2023-06-24T03:21:29;7.07;;;6.37;;
50225;SDS011;36113;50.742;6.432;2023-06-24T03:23:54;9.93;;;6.43;;
50225;SDS011;36113;50.742;6.432;2023-06-24T03:26:20;8.43;;;5.33;;
50225;SDS011;36113;50.742;6.432;2023-06-24T03:28:45;6.93;;;6.23;;
50225;SDS011;36113;50.742;6.432;2023-06-24T03:31:11;7.70;;;6.70;;
50225;SDS011;36113;50.742;6.432;2023-06-24T03:33:36;8.83;;;7.80;;
50225;SDS011;36113;50.742;6.432;2023-06-24T03:36:02;7.70;;;6.80;;
50225;SDS011;36113;50.742;6.432;2023-06-24T03:38:27;9.60;;;7.40;;
50225;SDS011;36113;50.742;6.432;2023-06-24T03:40:53;11.47;;;8.23;;
50225;SDS011;36113;50.742;6.432;2023-06-24T03:43:18;10.87;;;6.83;;
50225;SDS011;36113;50.742;6.432;2023-06-24T03:45:44;11.70;;;7.90;;
50225;SDS011;36113;50.742;6.432;2023-06-24T03:48:09;10.87;;;7.67;;
50225;SDS011;36113;50.742;6.432;2023-06-24T03:50:34;12.87;;;9.00;;
50225;SDS011;36113;50.742;6.432;2023-06-24T03:53:00;12.07;;;9.17;;
50225;SDS011;36113;50.742;6.432;2023-06-24T03:55:25;12.03;;;10.13;;
50225;SDS011;36113;50.742;6.432;2023-06-24T03:57:51;15.23;;;10.47;;
50225;SDS011;36113;50.742;6.432;2023-06-24T04:00:16;18.20;;;10.03;;
50225;SDS011;36113;50.742;6.432;2023-06-24T04:02:42;14.70;;;10.88;;
50225;SDS011;36113;50.742;6.432;2023-06-24T04:05:09;18.88;;;11.60;;
50225;SDS011;36113;50.742;6.432;2023-06-24T04:07:34;16.17;;;11.75;;
50225;SDS011;36113;50.742;6.432;2023-06-24T04:10:00;13.83;;;10.30;;
50225;SDS011;36113;50.742;6.432;2023-06-24T04:12:27;13.65;;;11.43;;
50225;SDS011;36113;50.742;6.432;2023-06-24T04:14:52;17.47;;;10.90;;
50225;SDS011;36113;50.742;6.432;2023-06-24T04:17:18;25.50;;;11.60;;
50225;SDS011;36113;50.742;6.432;2023-06-24T04:19:43;16.27;;;12.47;;
50225;SDS011;36113;50.742;6.432;2023-06-24T04:22:09;16.02;;;11.93;;
50225;SDS011;36113;50.742;6.432;2023-06-24T04:24:34;21.17;;;13.17;;
50225;SDS011;36113;50.742;6.432;2023-06-24T04:27:00;17.50;;;11.53;;
50225;SDS011;36113;50.742;6.432;2023-06-24T04:29:25;17.37;;;11.67;;
50225;SDS011;36113;50.742;6.432;2023-06-24T04:31:50;17.57;;;11.93;;
50225;SDS011;36113;50.742;6.432;2023-06-24T04:34:16;16.40;;;11.70;;
50225;SDS011;36113;50.742;6.432;2023-06-24T04:36:41;15.70;;;11.33;;
50225;SDS011;36113;50.742;6.432;2023-06-24T04:39:06;14.30;;;11.03;;
50225;SDS011;36113;50.742;6.432;2023-06-24T04:41:32;16.05;;;11.75;;
50225;SDS011;36113;50.742;6.432;2023-06-24T04:43:58;15.37;;;11.40;;
50225;SDS011;36113;50.742;6.432;2023-06-24T04:46:23;13.30;;;10.57;;
50225;SDS011;36113;50.742;6.432;2023-06-24T04:48:48;16.20;;;10.77;;
50225;SDS011;36113;50.742;6.432;2023-06-24T04:51:14;14.30;;;10.93;;
50225;SDS011;36113;50.742;6.432;2023-06-24T04:53:40;12.27;;;9.80;;
50225;SDS011;36113;50.742;6.432;2023-06-24T04:56:05;16.60;;;12.60;;
50225;SDS011;36113;50.742;6.432;2023-06-24T04:58:31;17.27;;;11.50;;
50225;SDS011;36113;50.742;6.432;2023-06-24T05:00:56;17.63;;;10.60;;
50225;SDS011;36113;50.742;6.432;2023-06-24T05:03:22;15.07;;;10.50;;
50225;SDS011;36113;50.742;6.432;2023-06-24T05:05:47;14.17;;;11.17;;
50225;SDS011;36113;50.742;6.432;2023-06-24T05:08:13;17.33;;;11.10;;
50225;SDS011;36113;50.742;6.432;2023-06-24T05:10:38;16.03;;;11.57;;
50225;SDS011;36113;50.742;6.432;2023-06-24T05:13:03;18.67;;;11.37;;
50225;SDS011;36113;50.742;6.432;2023-06-24T05:15:29;18.93;;;10.07;;
50225;SDS011;36113;50.742;6.432;2023-06-24T05:17:55;14.57;;;10.93;;
50225;SDS011;36113;50.742;6.432;2023-06-24T05:20:21;13.93;;;10.73;;
50225;SDS011;36113;50.742;6.432;2023-06-24T05:22:46;17.07;;;11.20;;
50225;SDS011;36113;50.742;6.432;2023-06-24T05:25:11;15.37;;;10.70;;
50225;SDS011;36113;50.742;6.432;2023-06-24T05:27:37;16.33;;;10.57;;
50225;SDS011;36113;50.742;6.432;2023-06-24T05:30:02;13.80;;;10.63;;
50225;SDS011;36113;50.742;6.432;2023-06-24T05:32:28;16.23;;;10.23;;
50225;SDS011;36113;50.742;6.432;2023-06-24T05:34:53;14.43;;;9.53;;
50225;SDS011;36113;50.742;6.432;2023-06-24T05:37:19;16.57;;;10.57;;
50225;SDS011;36113;50.742;6.432;2023-06-24T05:39:44;14.40;;;10.00;;
50225;SDS011;36113;50.742;6.432;2023-06-24T05:42:09;12.40;;;9.83;;
50225;SDS011;36113;50.742;6.432;2023-06-24T05:44:34;17.97;;;9.20;;
50225;SDS011;36113;50.742;6.432;2023-06-24T05:47:00;10.23;;;8.90;;
50225;SDS011;36113;50.742;6.432;2023-06-24T05:49:25;17.67;;;10.03;;
50225;SDS011;36113;50.742;6.432;2023-06-24T05:51:50;13.00;;;10.30;;
50225;SDS011;36113;50.742;6.432;2023-06-24T05:54:16;12.13;;;9.50;;
50225;SDS011;36113;50.742;6.432;2023-06-24T05:56:41;13.57;;;9.57;;
50225;SDS011;36113;50.742;6.432;2023-06-24T05:59:06;10.63;;;8.60;;
50225;SDS011;36113;50.742;6.432;2023-06-24T06:01:32;14.87;;;9.80;;
50225;SDS011;36113;50.742;6.432;2023-06-24T06:03:57;13.83;;;10.43;;
50225;SDS011;36113;50.742;6.432;2023-06-24T06:06:22;13.20;;;9.57;;
50225;SDS011;36113;50.742;6.432;2023-06-24T06:08:48;17.50;;;9.97;;
50225;SDS011;36113;50.742;6.432;2023-06-24T06:11:13;14.17;;;10.23;;
50225;SDS011;36113;50.742;6.432;2023-06-24T06:13:38;12.20;;;9.93;;
50225;SDS011;36113;50.742;6.432;2023-06-24T06:16:04;12.60;;;9.70;;
50225;SDS011;36113;50.742;6.432;2023-06-24T06:18:29;17.30;;;10.03;;
50225;SDS011;36113;50.742;6.432;2023-06-24T06:20:54;15.37;;;10.63;;
50225;SDS011;36113;50.742;6.432;2023-06-24T06:23:20;12.97;;;9.57;;
50225;SDS011;36113;50.742;6.432;2023-06-24T06:25:45;14.47;;;10.50;;
50225;SDS011;36113;50.742;6.432;2023-06-24T06:28:10;14.17;;;9.40;;
50225;SDS011;36113;50.742;6.432;2023-06-24T06:30:36;12.80;;;9.07;;
50225;SDS011;36113;50.742;6.432;2023-06-24T06:33:01;14.40;;;9.20;;
50225;SDS011;36113;50.742;6.432;2023-06-24T06:35:27;10.33;;;9.10;;
50225;SDS011;36113;50.742;6.432;2023-06-24T06:37:52;16.23;;;11.13;;
50225;SDS011;36113;50.742;6.432;2023-06-24T06:40:19;11.85;;;9.43;;
50225;SDS011;36113;50.742;6.432;2023-06-24T06:42:45;15.18;;;9.30;;
50225;SDS011;36113;50.742;6.432;2023-06-24T06:45:10;14.17;;;10.07;;
50225;SDS011;36113;50.742;6.432;2023-06-24T06:47:36;11.30;;;9.50;;
50225;SDS011;36113;50.742;6.432;2023-06-24T06:50:01;14.20;;;9.40;;
50225;SDS011;36113;50.742;6.432;2023-06-24T06:52:26;12.63;;;8.47;;
50225;SDS011;36113;50.742;6.432;2023-06-24T06:54:53;13.63;;;9.75;;
50225;SDS011;36113;50.742;6.432;2023-06-24T06:57:18;15.63;;;9.87;;
50225;SDS011;36113;50.742;6.432;2023-06-24T06:59:44;12.70;;;9.80;;
50225;SDS011;36113;50.742;6.432;2023-06-24T07:02:09;10.77;;;8.47;;
50225;SDS011;36113;50.742;6.432;2023-06-24T07:04:34;12.57;;;9.13;;
50225;SDS011;36113;50.742;6.432;2023-06-24T07:07:00;24.40;;;10.13;;
50225;SDS011;36113;50.742;6.432;2023-06-24T07:09:25;16.87;;;11.13;;
50225;SDS011;36113;50.742;6.432;2023-06-24T07:11:50;18.73;;;10.77;;
50225;SDS011;36113;50.742;6.432;2023-06-24T07:14:16;13.83;;;9.47;;
50225;SDS011;36113;50.742;6.432;2023-06-24T07:16:41;16.20;;;10.97;;
50225;SDS011;36113;50.742;6.432;2023-06-24T07:19:06;13.27;;;9.63;;
50225;SDS011;36113;50.742;6.432;2023-06-24T07:21:32;13.47;;;9.03;;
50225;SDS011;36113;50.742;6.432;2023-06-24T07:23:57;9.80;;;7.30;;
50225;SDS011;36113;50.742;6.432;2023-06-24T07:26:22;17.90;;;9.83;;
50225;SDS011;36113;50.742;6.432;2023-06-24T07:28:48;11.97;;;9.20;;
50225;SDS011;36113;50.742;6.432;2023-06-24T07:31:13;8.73;;;7.80;;
50225;SDS011;36113;50.742;6.432;2023-06-24T07:33:38;13.20;;;9.20;;
50225;SDS011;36113;50.742;6.432;2023-06-24T07:36:04;12.37;;;9.77;;
50225;SDS011;36113;50.742;6.432;2023-06-24T07:38:29;10.33;;;8.47;;
50225;SDS011;36113;50.742;6.432;2023-06-24T07:40:55;12.93;;;8.40;;
50225;SDS011;36113;50.742;6.432;2023-06-24T07:43:20;12.97;;;8.73;;
50225;SDS011;36113;50.742;6.432;2023-06-24T07:45:46;17.37;;;9.13;;
50225;SDS011;36113;50.742;6.432;2023-06-24T07:48:11;13.47;;;9.40;;
50225;SDS011;36113;50.742;6.432;2023-06-24T07:50:37;14.40;;;9.07;;
50225;SDS011;36113;50.742;6.432;2023-06-24T07:53:04;10.63;;;7.68;;
50225;SDS011;36113;50.742;6.432;2023-06-24T07:55:29;12.37;;;7.20;;
50225;SDS011;36113;50.742;6.432;2023-06-24T07:57:54;15.13;;;8.23;;
50225;SDS011;36113;50.742;6.432;2023-06-24T08:00:20;14.60;;;8.47;;
50225;SDS011;36113;50.742;6.432;2023-06-24T08:02:45;12.50;;;7.37;;
50225;SDS011;36113;50.742;6.432;2023-06-24T08:05:10;15.23;;;8.03;;
50225;SDS011;36113;50.742;6.432;2023-06-24T08:07:36;8.60;;;6.90;;
50225;SDS011;36113;50.742;6.432;2023-06-24T08:10:02;8.00;;;6.38;;
50225;SDS011;36113;50.742;6.432;2023-06-24T08:12:28;10.25;;;7.25;;
50225;SDS011;36113;50.742;6.432;2023-06-24T08:14:53;8.93;;;6.60;;
50225;SDS011;36113;50.742;6.432;2023-06-24T08:17:19;9.67;;;5.60;;
50225;SDS011;36113;50.742;6.432;2023-06-24T08:19:44;7.20;;;5.83;;
50225;SDS011;36113;50.742;6.432;2023-06-24T08:22:09;7.73;;;5.47;;
50225;SDS011;36113;50.742;6.432;2023-06-24T08:24:36;7.57;;;5.47;;
50225;SDS011;36113;50.742;6.432;2023-06-24T08:27:01;13.05;;;5.28;;
50225;SDS011;36113;50.742;6.432;2023-06-24T08:29:27;9.47;;;5.07;;
50225;SDS011;36113;50.742;6.432;2023-06-24T08:31:52;11.53;;;5.83;;
50225;SDS011;36113;50.742;6.432;2023-06-24T08:34:18;11.53;;;9.87;;
50225;SDS011;36113;50.742;6.432;2023-06-24T08:36:43;12.37;;;8.20;;
50225;SDS011;36113;50.742;6.432;2023-06-24T08:39:08;21.40;;;15.80;;
50225;SDS011;36113;50.742;6.432;2023-06-24T08:41:33;5.90;;;5.30;;
50225;SDS011;36113;50.742;6.432;2023-06-24T08:43:59;9.50;;;6.83;;
50225;SDS011;36113;50.742;6.432;2023-06-24T08:46:24;18.57;;;12.37;;
50225;SDS011;36113;50.742;6.432;2023-06-24T08:48:54;7.78;;;4.50;;
50225;SDS011;36113;50.742;6.432;2023-06-24T08:51:41;13.15;;;6.38;;
50225;SDS011;36113;50.742;6.432;2023-06-24T08:54:11;8.13;;;6.28;;
50225;SDS011;36113;50.742;6.432;2023-06-24T08:56:37;7.60;;;4.45;;
50225;SDS011;36113;50.742;6.432;2023-06-24T08:59:05;5.68;;;5.07;;
50225;SDS011;36113;50.742;6.432;2023-06-24T09:01:31;11.88;;;5.97;;
50225;SDS011;36113;50.742;6.432;2023-06-24T09:03:56;7.83;;;3.93;;
50225;SDS011;36113;50.742;6.432;2023-06-24T09:06:21;7.93;;;4.33;;
50225;SDS011;36113;50.742;6.432;2023-06-24T09:08:56;5.37;;;4.87;;
50225;SDS011;36113;50.742;6.432;2023-06-24T09:11:22;4.43;;;4.00;;
50225;SDS011;36113;50.742;6.432;2023-06-24T09:13:55;6.65;;;3.72;;
50225;SDS011;36113;50.742;6.432;2023-06-24T09:16:24;5.03;;;3.97;;
50225;SDS011;36113;50.742;6.432;2023-06-24T09:18:50;5.15;;;4.15;;
50225;SDS011;36113;50.742;6.432;2023-06-24T09:21:27;4.35;;;3.95;;
50225;SDS011;36113;50.742;6.432;2023-06-24T09:23:55;6.15;;;3.65;;
50225;SDS011;36113;50.742;6.432;2023-06-24T09:26:26;4.18;;;3.47;;
50225;SDS011;36113;50.742;6.432;2023-06-24T09:28:52;4.22;;;3.83;;
50225;SDS011;36113;50.742;6.432;2023-06-24T09:31:18;3.92;;;3.50;;
50225;SDS011;36113;50.742;6.432;2023-06-24T09:33:44;3.60;;;3.25;;
50225;SDS011;36113;50.742;6.432;2023-06-24T09:36:13;3.75;;;3.45;;
50225;SDS011;36113;50.742;6.432;2023-06-24T09:38:40;3.60;;;3.28;;
50225;SDS011;36113;50.742;6.432;2023-06-24T09:41:07;4.40;;;2.92;;
50225;SDS011;36113;50.742;6.432;2023-06-24T09:43:34;5.15;;;3.17;;
50225;SDS011;36113;50.742;6.432;2023-06-24T09:46:06;2.80;;;2.60;;
50225;SDS011;36113;50.742;6.432;2023-06-24T09:51:02;6.63;;;3.83;;
50225;SDS011;36113;50.742;6.432;2023-06-24T09:53:32;3.58;;;3.28;;
50225;SDS011;36113;50.742;6.432;2023-06-24T09:55:59;4.50;;;3.00;;
50225;SDS011;36113;50.742;6.432;2023-06-24T09:58:26;3.60;;;3.20;;
50225;SDS011;36113;50.742;6.432;2023-06-24T10:00:53;4.20;;;2.90;;
50225;SDS011;36113;50.742;6.432;2023-06-24T10:03:20;4.88;;;3.17;;
50225;SDS011;36113;50.742;6.432;2023-06-24T10:05:46;2.60;;;2.40;;
50225;SDS011;36113;50.742;6.432;2023-06-24T10:08:13;5.50;;;2.88;;
50225;SDS011;36113;50.742;6.432;2023-06-24T10:10:38;6.28;;;3.25;;
50225;SDS011;36113;50.742;6.432;2023-06-24T10:13:04;3.30;;;3.00;;
50225;SDS011;36113;50.742;6.432;2023-06-24T10:15:29;3.47;;;2.80;;
50225;SDS011;36113;50.742;6.432;2023-06-24T10:17:55;3.37;;;3.07;;
50225;SDS011;36113;50.742;6.432;2023-06-24T10:20:23;2.30;;;2.10;;
50225;SDS011;36113;50.742;6.432;2023-06-24T10:22:53;6.32;;;3.15;;
50225;SDS011;36113;50.742;6.432;2023-06-24T10:25:18;6.13;;;2.75;;
50225;SDS011;36113;50.742;6.432;2023-06-24T10:27:44;3.03;;;2.57;;
50225;SDS011;36113;50.742;6.432;2023-06-24T10:30:19;7.70;;;3.20;;
50225;SDS011;36113;50.742;6.432;2023-06-24T10:32:46;8.32;;;2.72;;
50225;SDS011;36113;50.742;6.432;2023-06-24T10:35:23;4.30;;;2.60;;
50225;SDS011;36113;50.742;6.432;2023-06-24T10:37:56;2.50;;;2.30;;
50225;SDS011;36113;50.742;6.432;2023-06-24T10:40:42;2.50;;;2.30;;
50225;SDS011;36113;50.742;6.432;2023-06-24T10:45:58;2.90;;;2.70;;
50225;SDS011;36113;50.742;6.432;2023-06-24T10:48:24;4.85;;;2.75;;
50225;SDS011;36113;50.742;6.432;2023-06-24T10:50:49;2.13;;;2.03;;
50225;SDS011;36113;50.742;6.432;2023-06-24T10:53:15;2.20;;;2.00;;
50225;SDS011;36113;50.742;6.432;2023-06-24T10:55:43;3.15;;;2.40;;
50225;SDS011;36113;50.742;6.432;2023-06-24T10:58:10;2.45;;;2.30;;
50225;SDS011;36113;50.742;6.432;2023-06-24T11:00:37;3.13;;;2.40;;
50225;SDS011;36113;50.742;6.432;2023-06-24T11:03:10;2.30;;;2.17;;
50225;SDS011;36113;50.742;6.432;2023-06-24T11:05:42;2.63;;;2.42;;
50225;SDS011;36113;50.742;6.432;2023-06-24T11:08:09;3.28;;;2.35;;
50225;SDS011;36113;50.742;6.432;2023-06-24T11:10:47;2.92;;;2.53;;
50225;SDS011;36113;50.742;6.432;2023-06-24T11:13:13;2.83;;;2.38;;
50225;SDS011;36113;50.742;6.432;2023-06-24T11:15:39;4.72;;;2.30;;
50225;SDS011;36113;50.742;6.432;2023-06-24T11:18:07;4.82;;;2.80;;
50225;SDS011;36113;50.742;6.432;2023-06-24T11:20:34;2.45;;;2.35;;
50225;SDS011;36113;50.742;6.432;2023-06-24T11:23:01;2.70;;;2.50;;
50225;SDS011;36113;50.742;6.432;2023-06-24T11:25:26;2.90;;;2.70;;
50225;SDS011;36113;50.742;6.432;2023-06-24T11:27:52;2.53;;;2.33;;
50225;SDS011;36113;50.742;6.432;2023-06-24T11:30:20;3.47;;;2.45;;
50225;SDS011;36113;50.742;6.432;2023-06-24T11:32:46;2.83;;;2.63;;
50225;SDS011;36113;50.742;6.432;2023-06-24T11:35:13;2.45;;;2.25;;
50225;SDS011;36113;50.742;6.432;2023-06-24T11:37:46;2.47;;;2.28;;
50225;SDS011;36113;50.742;6.432;2023-06-24T11:40:12;2.15;;;2.05;;
50225;SDS011;36113;50.742;6.432;2023-06-24T11:42:41;4.75;;;2.67;;
50225;SDS011;36113;50.742;6.432;2023-06-24T11:45:10;2.45;;;2.22;;
50225;SDS011;36113;50.742;6.432;2023-06-24T11:47:37;3.30;;;2.60;;
50225;SDS011;36113;50.742;6.432;2023-06-24T11:50:07;2.38;;;2.10;;
50225;SDS011;36113;50.742;6.432;2023-06-24T11:52:43;2.83;;;2.22;;
50225;SDS011;36113;50.742;6.432;2023-06-24T11:55:15;3.78;;;2.72;;
50225;SDS011;36113;50.742;6.432;2023-06-24T12:00:20;2.38;;;2.17;;
50225;SDS011;36113;50.742;6.432;2023-06-24T12:02:50;2.60;;;2.40;;
50225;SDS011;36113;50.742;6.432;2023-06-24T12:05:22;3.10;;;2.67;;
50225;SDS011;36113;50.742;6.432;2023-06-24T12:07:51;2.65;;;2.45;;
50225;SDS011;36113;50.742;6.432;2023-06-24T12:10:19;5.97;;;2.92;;
50225;SDS011;36113;50.742;6.432;2023-06-24T12:12:44;4.83;;;3.00;;
50225;SDS011;36113;50.742;6.432;2023-06-24T12:15:09;2.60;;;2.40;;
50225;SDS011;36113;50.742;6.432;2023-06-24T12:17:35;3.03;;;2.70;;
50225;SDS011;36113;50.742;6.432;2023-06-24T12:20:00;5.87;;;2.63;;
50225;SDS011;36113;50.742;6.432;2023-06-24T12:22:25;2.40;;;2.30;;
50225;SDS011;36113;50.742;6.432;2023-06-24T12:24:52;2.63;;;2.40;;
50225;SDS011;36113;50.742;6.432;2023-06-24T12:27:17;2.93;;;2.63;;
50225;SDS011;36113;50.742;6.432;2023-06-24T12:29:42;2.50;;;2.30;;
50225;SDS011;36113;50.742;6.432;2023-06-24T12:32:08;2.10;;;1.90;;
50225;SDS011;36113;50.742;6.432;2023-06-24T12:34:33;2.60;;;2.40;;
50225;SDS011;36113;50.742;6.432;2023-06-24T12:36:58;2.20;;;2.10;;
50225;SDS011;36113;50.742;6.432;2023-06-24T12:39:24;2.38;;;2.17;;
50225;SDS011;36113;50.742;6.432;2023-06-24T12:41:49;2.60;;;2.40;;
50225;SDS011;36113;50.742;6.432;2023-06-24T12:44:14;2.40;;;2.20;;
50225;SDS011;36113;50.742;6.432;2023-06-24T12:46:40;2.58;;;2.38;;
50225;SDS011;36113;50.742;6.432;2023-06-24T12:49:05;2.37;;;2.17;;
50225;SDS011;36113;50.742;6.432;2023-06-24T12:51:30;2.00;;;1.90;;
50225;SDS011;36113;50.742;6.432;2023-06-24T12:53:56;2.57;;;2.37;;
50225;SDS011;36113;50.742;6.432;2023-06-24T12:56:21;1.90;;;1.80;;
50225;SDS011;36113;50.742;6.432;2023-06-24T12:58:46;2.50;;;2.07;;
50225;SDS011;36113;50.742;6.432;2023-06-24T13:01:12;2.40;;;2.20;;
50225;SDS011;36113;50.742;6.432;2023-06-24T13:03:37;2.40;;;2.20;;
50225;SDS011;36113;50.742;6.432;2023-06-24T13:06:02;2.20;;;2.00;;
50225;SDS011;36113;50.742;6.432;2023-06-24T13:08:28;2.15;;;2.03;;
50225;SDS011;36113;50.742;6.432;2023-06-24T13:10:53;3.10;;;1.97;;
50225;SDS011;36113;50.742;6.432;2023-06-24T13:13:18;2.37;;;2.17;;
50225;SDS011;36113;50.742;6.432;2023-06-24T13:15:44;3.60;;;2.00;;
50225;SDS011;36113;50.742;6.432;2023-06-24T13:18:09;2.53;;;2.33;;
50225;SDS011;36113;50.742;6.432;2023-06-24T13:20:34;2.50;;;2.33;;
50225;SDS011;36113;50.742;6.432;2023-06-24T13:23:00;2.10;;;2.00;;
50225;SDS011;36113;50.742;6.432;2023-06-24T13:25:25;2.70;;;2.50;;
50225;SDS011;36113;50.742;6.432;2023-06-24T13:27:50;3.43;;;2.40;;
50225;SDS011;36113;50.742;6.432;2023-06-24T13:30:16;6.25;;;2.40;;
50225;SDS011;36113;50.742;6.432;2023-06-24T13:32:42;2.73;;;2.50;;
50225;SDS011;36113;50.742;6.432;2023-06-24T13:35:07;8.38;;;2.53;;
50225;SDS011;36113;50.742;6.432;2023-06-24T13:37:33;3.10;;;2.10;;
50225;SDS011;36113;50.742;6.432;2023-06-24T13:39:58;2.93;;;2.10;;
50225;SDS011;36113;50.742;6.432;2023-06-24T13:42:24;2.10;;;2.00;;
50225;SDS011;36113;50.742;6.432;2023-06-24T13:44:50;2.60;;;2.30;;
50225;SDS011;36113;50.742;6.432;2023-06-24T13:47:16;1.88;;;1.77;;
50225;SDS011;36113;50.742;6.432;2023-06-24T13:49:41;5.17;;;2.33;;
50225;SDS011;36113;50.742;6.432;2023-06-24T13:52:07;2.27;;;2.17;;
50225;SDS011;36113;50.742;6.432;2023-06-24T13:54:32;2.20;;;2.10;;
50225;SDS011;36113;50.742;6.432;2023-06-24T13:57:00;2.88;;;2.60;;
50225;SDS011;36113;50.742;6.432;2023-06-24T13:59:25;4.03;;;2.15;;
50225;SDS011;36113;50.742;6.432;2023-06-24T14:01:51;2.60;;;2.40;;
50225;SDS011;36113;50.742;6.432;2023-06-24T14:04:16;2.13;;;2.03;;
50225;SDS011;36113;50.742;6.432;2023-06-24T14:06:41;2.63;;;2.10;;
50225;SDS011;36113;50.742;6.432;2023-06-24T14:09:08;2.92;;;1.98;;
50225;SDS011;36113;50.742;6.432;2023-06-24T14:11:33;2.85;;;2.17;;
50225;SDS011;36113;50.742;6.432;2023-06-24T14:13:59;2.80;;;2.43;;
50225;SDS011;36113;50.742;6.432;2023-06-24T14:16:24;2.53;;;2.33;;
50225;SDS011;36113;50.742;6.432;2023-06-24T14:18:50;2.37;;;2.23;;
50225;SDS011;36113;50.742;6.432;2023-06-24T14:21:15;2.37;;;2.17;;
50225;SDS011;36113;50.742;6.432;2023-06-24T14:23:40;2.07;;;1.87;;
50225;SDS011;36113;50.742;6.432;2023-06-24T14:26:06;5.10;;;2.03;;
50225;SDS011;36113;50.742;6.432;2023-06-24T14:28:31;3.23;;;1.80;;
50225;SDS011;36113;50.742;6.432;2023-06-24T14:30:56;4.40;;;2.13;;
50225;SDS011;36113;50.742;6.432;2023-06-24T14:33:22;1.50;;;1.40;;
50225;SDS011;36113;50.742;6.432;2023-06-24T14:35:47;1.60;;;1.50;;
50225;SDS011;36113;50.742;6.432;2023-06-24T14:38:12;1.87;;;1.77;;
50225;SDS011;36113;50.742;6.432;2023-06-24T14:40:38;4.10;;;2.20;;
50225;SDS011;36113;50.742;6.432;2023-06-24T14:43:03;1.93;;;1.83;;
50225;SDS011;36113;50.742;6.432;2023-06-24T14:45:28;2.30;;;2.10;;
50225;SDS011;36113;50.742;6.432;2023-06-24T14:47:54;2.33;;;1.93;;
50225;SDS011;36113;50.742;6.432;2023-06-24T14:50:19;2.30;;;2.03;;
50225;SDS011;36113;50.742;6.432;2023-06-24T14:52:44;2.40;;;2.20;;
50225;SDS011;36113;50.742;6.432;2023-06-24T14:55:10;1.87;;;1.77;;
50225;SDS011;36113;50.742;6.432;2023-06-24T14:57:36;2.15;;;2.00;;